Flight Track Log - Related Links

Times and Time Zones

All times are in EDT time to prevent confusion due to time zone crossing. See the CAV539 flight status page for this flight to view local times or setup timezone preferences in your user account.

Time Position Orientation Groundspeed Altitude Reporting Facility
EDT Latitude Longitude Course Direction KTS MPH feet Rate Location/Type
Sun 06:59:00 PM 63.0742 -92.7665 312° West  Level Estimated
Sun 07:00:00 PM 63.1177 -92.8760 311° West  Level Estimated
Sun 07:01:00 PM 63.1611 -92.9859 311° West  Level Estimated
Sun 07:02:00 PM 63.2045 -93.0962 311° West  Level Estimated
Sun 07:03:00 PM 63.2477 -93.2068 311° West  Level Estimated
Sun 07:04:00 PM 63.2909 -93.3177 311° West  Level Estimated
Sun 07:05:00 PM 63.3340 -93.4289 311° West  Level Estimated
Sun 07:06:00 PM 63.3770 -93.5405 311° West  Level Estimated
Sun 07:07:00 PM 63.4199 -93.6524 311° West  Level Estimated
Sun 07:08:00 PM 63.4627 -93.7646 311° West  Level Estimated
Sun 07:09:00 PM 63.5054 -93.8772 310° West  Level Estimated
Sun 07:10:00 PM 63.5481 -93.9901 310° West  Level Estimated
Sun 07:11:00 PM 63.5906 -94.1033 310° West  Level Estimated
Sun 07:12:00 PM 63.6331 -94.2169 310° West  Level Estimated
Sun 07:13:00 PM 63.6754 -94.3308 310° West  Level Estimated
Sun 07:14:00 PM 63.7177 -94.4451 310° West  Level Estimated
Sun 07:15:00 PM 63.7599 -94.5596 310° West  Level Estimated
Sun 07:16:00 PM 63.8020 -94.6746 310° West  Level Estimated
Sun 07:17:00 PM 63.8440 -94.7899 310° West  Level Estimated
Sun 07:18:00 PM 63.8859 -94.9055 310° West  Level Estimated
Sun 07:19:00 PM 63.9278 -95.0215 309° West  Level Estimated
Sun 07:20:00 PM 63.9695 -95.1378 309° West  Level Estimated
Sun 07:21:00 PM 64.0111 -95.2545 309° West  Level Estimated
Sun 07:22:00 PM 64.0527 -95.3715 309° West  Level Estimated
Sun 07:23:00 PM 64.0941 -95.4889 309° West  Level Estimated
Sun 07:24:00 PM 64.1355 -95.6066 309° West  Level Estimated
Sun 07:25:00 PM 64.1768 -95.7247 309° West  Level Estimated
Sun 07:26:00 PM 64.2179 -95.8431 309° West  Level Estimated
Sun 07:27:00 PM 64.2590 -95.9619 309° West  Level Estimated
Sun 07:28:00 PM 64.2989 -96.0778 308° West  Level Estimated
Sun 07:29:00 PM 64.2989 -96.0778 139° Southeast  Level Estimated
Sun 07:30:00 PM 64.2989 -96.0778 139° Southeast  Level Estimated
Sun 07:31:00 PM 64.2989 -96.0778 139° Southeast  Level Estimated
Sun 07:32:00 PM 64.2989 -96.0778 139° Southeast  Level Estimated
Sun 07:33:00 PM 64.2989 -96.0778 139° Southeast  Level Estimated
Sun 07:34:00 PM 64.2989 -96.0778 139° Southeast  Level Estimated
Sun 07:35:00 PM 64.2989 -96.0778 139° Southeast  Level Estimated
Sun 07:36:00 PM 64.2989 -96.0778 139° Southeast  Level Estimated
Sun 07:37:00 PM 64.2989 -96.0778 139° Southeast  Level Estimated
Sun 07:38:00 PM 64.2989 -96.0778 139° Southeast  Level Estimated
Sun 07:39:00 PM 64.2989 -96.0778 139° Southeast  Level Estimated
Sun 07:40:00 PM 64.2989 -96.0778 139° Southeast  Level Estimated
Sun 07:41:00 PM 64.2989 -96.0778 139° Southeast  Level Estimated
Sun 07:42:00 PM 64.2989 -96.0778 139° Southeast  Level Estimated
Sun 07:43:00 PM 64.2989 -96.0778 139° Southeast  Level Estimated
Sun 07:44:00 PM 64.2989 -96.0778 139° Southeast  Level Estimated

Login

Don't have an account? Register now (free) for customized features, flight alerts, and more!